Time;durP1;ratioP1;P1;durP2;ratioP2;P2;SDS_P1;SDS_P2;PMS_P1;PMS_P2;Temp;Humidity;BMP_temperature;BMP_pressure;BME280_temperature;BME280_humidity;BME280_pressure;Samples;Min_cycle;Max_cycle;Signal;HPM_P1;HPM_P2
2021/08/27 00:01:05;;;;;;;1.63;1.10;;;24.20;47.40;;;;;;5053019;28;20148;-74
2021/08/27 00:03:33;;;;;;;1.30;1.20;;;24.20;47.40;;;;;;5047511;28;20080;-74
2021/08/27 00:06:00;;;;;;;1.33;1.05;;;24.20;47.50;;;;;;5047357;28;20052;-74
2021/08/27 00:08:27;;;;;;;2.85;1.13;;;24.20;47.50;;;;;;5054158;28;20064;-73
2021/08/27 00:10:54;;;;;;;1.10;1.00;;;24.20;47.50;;;;;;5062212;28;20045;-74
2021/08/27 00:13:21;;;;;;;1.30;1.13;;;24.10;47.40;;;;;;5066425;28;20054;-74
2021/08/27 00:15:49;;;;;;;1.05;0.95;;;24.20;47.50;;;;;;5068995;28;20049;-74
2021/08/27 00:18:16;;;;;;;1.13;1.05;;;24.20;47.50;;;;;;5054029;28;20052;-74
2021/08/27 00:20:43;;;;;;;1.55;1.05;;;24.20;47.50;;;;;;5069377;28;20528;-73
2021/08/27 00:23:10;;;;;;;1.45;0.98;;;24.10;47.50;;;;;;5069646;28;20049;-73
2021/08/27 00:25:37;;;;;;;0.98;0.90;;;24.20;47.60;;;;;;5071570;28;20052;-74
2021/08/27 00:28:06;;;;;;;1.27;1.00;;;24.10;47.50;;;;;;5061769;28;20128;-75
2021/08/27 00:30:33;;;;;;;3.35;1.02;;;24.20;47.60;;;;;;5068713;28;20098;-74
2021/08/27 00:33:00;;;;;;;1.15;1.05;;;24.20;47.60;;;;;;5070703;28;20079;-74
2021/08/27 00:35:28;;;;;;;0.82;0.82;;;24.20;47.60;;;;;;5071428;28;20040;-74
2021/08/27 00:37:55;;;;;;;1.13;0.93;;;24.20;47.60;;;;;;5063373;28;20443;-72
2021/08/27 00:40:22;;;;;;;1.20;1.10;;;24.10;47.60;;;;;;5064444;28;20040;-74
2021/08/27 00:42:49;;;;;;;1.70;1.00;;;24.20;47.60;;;;;;5061370;28;20052;-73
2021/08/27 00:45:16;;;;;;;0.82;0.82;;;24.10;47.60;;;;;;5070804;28;20041;-74
2021/08/27 00:47:43;;;;;;;0.85;0.85;;;24.20;47.60;;;;;;5052024;28;20727;-74
2021/08/27 00:50:11;;;;;;;0.75;0.75;;;24.20;48.10;;;;;;5065391;28;20049;-74
2021/08/27 00:52:39;;;;;;;1.05;0.90;;;24.10;47.60;;;;;;5061822;28;20512;-74
2021/08/27 00:55:08;;;;;;;1.00;0.82;;;24.20;47.60;;;;;;5066988;28;20090;-75
2021/08/27 00:57:36;;;;;;;1.02;0.82;;;24.20;47.60;;;;;;5065018;28;20128;-75
2021/08/27 01:00:04;;;;;;;1.30;0.98;;;24.20;47.60;;;;;;5065108;28;20049;-74
2021/08/27 01:02:32;;;;;;;1.60;0.98;;;24.20;47.60;;;;;;5069969;28;20044;-74
2021/08/27 01:04:59;;;;;;;1.52;1.23;;;24.20;47.60;;;;;;5070309;28;20083;-75
2021/08/27 01:07:46;;;;;;;0.77;0.77;;;24.20;47.60;;;;;;5064478;28;20240;-74
2021/08/27 01:10:30;;;;;;;0.85;0.80;;;24.20;47.60;;;;;;5058896;28;20044;-75
2021/08/27 01:13:16;;;;;;;0.93;0.75;;;24.20;47.60;;;;;;5057292;28;20053;-75
2021/08/27 01:15:55;;;;;;;1.17;1.00;;;24.20;47.60;;;;;;5051965;28;20045;-75
2021/08/27 01:18:51;;;;;;;1.13;1.02;;;24.20;47.60;;;;;;5062016;28;20064;-75
2021/08/27 01:21:50;;;;;;;1.05;0.93;;;24.20;47.60;;;;;;5070170;28;20135;-75
2021/08/27 01:24:19;;;;;;;1.00;0.93;;;24.20;47.60;;;;;;5069510;28;20556;-75
2021/08/27 01:26:49;;;;;;;1.20;0.77;;;24.20;47.60;;;;;;5069789;28;20135;-75
2021/08/27 01:29:56;;;;;;;1.00;0.88;;;24.20;47.70;;;;;;5058566;28;20072;-76
2021/08/27 01:32:46;;;;;;;0.98;0.82;;;24.20;47.70;;;;;;5069702;28;20517;-75
2021/08/27 01:35:15;;;;;;;0.90;0.90;;;24.20;47.70;;;;;;5069842;28;20041;-74
2021/08/27 01:37:48;;;;;;;0.60;0.60;;;24.10;47.70;;;;;;5066299;28;20056;-74
2021/08/27 01:40:18;;;;;;;0.90;0.82;;;24.10;47.70;;;;;;5064014;28;20558;-74
2021/08/27 01:42:47;;;;;;;0.82;0.77;;;24.10;47.70;;;;;;5069597;28;20505;-74
2021/08/27 01:45:15;;;;;;;1.30;1.20;;;24.10;47.70;;;;;;5069524;28;20472;-75
2021/08/27 01:47:44;;;;;;;0.90;0.90;;;24.10;47.70;;;;;;5065821;28;20131;-75
2021/08/27 01:50:13;;;;;;;0.88;0.80;;;24.10;47.70;;;;;;5064404;28;20135;-74
2021/08/27 01:52:41;;;;;;;1.17;0.90;;;24.10;47.80;;;;;;5069744;28;20127;-74
2021/08/27 01:55:10;;;;;;;1.30;0.70;;;24.10;47.70;;;;;;5068640;28;20041;-75
2021/08/27 01:57:39;;;;;;;1.08;0.80;;;24.10;47.80;;;;;;5066040;28;20068;-74
2021/08/27 02:00:07;;;;;;;0.70;0.70;;;24.10;47.80;;;;;;5063775;28;20481;-74
2021/08/27 02:02:35;;;;;;;0.93;0.80;;;24.10;47.80;;;;;;5069204;28;20443;-75
2021/08/27 02:05:06;;;;;;;1.50;0.77;;;24.10;47.80;;;;;;5062425;28;20051;-75
2021/08/27 02:07:33;;;;;;;0.93;0.73;;;24.10;47.80;;;;;;5048861;28;20052;-73
2021/08/27 02:10:02;;;;;;;0.93;0.82;;;24.10;47.80;;;;;;5064816;28;20051;-74
2021/08/27 02:12:29;;;;;;;0.57;0.57;;;24.10;47.80;;;;;;5068886;28;20052;-75
2021/08/27 02:14:57;;;;;;;0.75;0.70;;;24.10;47.80;;;;;;5069057;28;20044;-75
2021/08/27 02:17:25;;;;;;;0.88;0.85;;;24.10;47.80;;;;;;5065670;28;20058;-74
2021/08/27 02:19:53;;;;;;;2.53;0.70;;;24.10;47.80;;;;;;5063599;28;20139;-75
2021/08/27 02:22:22;;;;;;;0.68;0.52;;;24.10;47.80;;;;;;5068924;28;20045;-74
2021/08/27 02:25:03;;;;;;;0.90;0.90;;;24.10;47.80;;;;;;5068682;28;20048;-74
2021/08/27 02:27:33;;;;;;;1.02;0.70;;;24.10;47.80;;;;;;5063593;28;20055;-74
2021/08/27 02:30:02;;;;;;;0.82;0.73;;;24.10;47.80;;;;;;5061558;28;20131;-74
2021/08/27 02:32:30;;;;;;;1.08;0.77;;;24.10;47.80;;;;;;5069097;28;20135;-75
2021/08/27 02:35:00;;;;;;;0.68;0.68;;;24.10;47.80;;;;;;5068916;28;20131;-76
2021/08/27 02:37:32;;;;;;;1.00;0.90;;;24.10;47.80;;;;;;5064039;28;20086;-76
2021/08/27 02:40:01;;;;;;;1.15;1.00;;;24.10;47.80;;;;;;5062445;28;20051;-75
2021/08/27 02:42:31;;;;;;;2.60;0.70;;;24.10;47.80;;;;;;5068954;28;20094;-75
2021/08/27 02:44:59;;;;;;;0.73;0.70;;;24.10;47.80;;;;;;5068384;28;20132;-75
2021/08/27 02:47:27;;;;;;;0.68;0.63;;;24.10;47.80;;;;;;5064254;28;20087;-74
2021/08/27 02:49:54;;;;;;;0.93;0.85;;;24.10;47.80;;;;;;5062656;28;20130;-74
2021/08/27 02:52:51;;;;;;;0.65;0.65;;;24.10;47.80;;;;;;5061782;28;20124;-74
2021/08/27 02:55:22;;;;;;;0.80;0.80;;;24.10;47.80;;;;;;5065841;28;20060;-75
2021/08/27 02:58:03;;;;;;;1.23;0.80;;;24.10;47.80;;;;;;5063457;28;20041;-74
2021/08/27 03:00:35;;;;;;;1.15;0.70;;;24.10;47.80;;;;;;5064911;28;20139;-75
2021/08/27 03:03:05;;;;;;;1.05;0.80;;;24.10;47.80;;;;;;5067917;28;20079;-74
2021/08/27 03:05:42;;;;;;;0.70;0.70;;;24.10;47.90;;;;;;5068604;28;20280;-74
2021/08/27 03:08:19;;;;;;;1.27;0.80;;;24.10;47.80;;;;;;5060828;28;20139;-74
2021/08/27 03:10:56;;;;;;;1.75;0.57;;;24.10;47.90;;;;;;5053373;28;20055;-75
2021/08/27 03:13:38;;;;;;;0.73;0.68;;;24.10;47.90;;;;;;5047773;28;20045;-75
2021/08/27 03:16:09;;;;;;;0.82;0.65;;;24.10;47.90;;;;;;5048048;28;20053;-74
2021/08/27 03:19:01;;;;;;;1.25;0.70;;;24.10;47.90;;;;;;5050216;28;20048;-73
2021/08/27 03:21:35;;;;;;;0.68;0.50;;;24.10;47.90;;;;;;5067278;28;20105;-74
2021/08/27 03:24:14;;;;;;;1.05;0.70;;;24.10;48.00;;;;;;5067861;28;20127;-75
2021/08/27 03:26:44;;;;;;;1.10;0.68;;;24.10;48.00;;;;;;5067657;28;20197;-75
2021/08/27 03:29:16;;;;;;;0.93;0.80;;;24.10;48.00;;;;;;5059315;28;20135;-74
2021/08/27 03:31:43;;;;;;;1.17;0.80;;;24.10;48.00;;;;;;5066985;28;20504;-74
2021/08/27 03:34:11;;;;;;;1.25;0.80;;;24.10;48.00;;;;;;5067641;28;20136;-74
2021/08/27 03:36:42;;;;;;;1.98;0.60;;;24.10;48.00;;;;;;5067345;28;20701;-75
2021/08/27 03:39:10;;;;;;;0.75;0.70;;;24.10;48.00;;;;;;5059822;28;20148;-75
2021/08/27 03:41:42;;;;;;;0.77;0.70;;;24.10;48.00;;;;;;5065162;28;20041;-74
2021/08/27 03:44:14;;;;;;;1.25;1.10;;;24.10;48.00;;;;;;5055152;28;20052;-75
2021/08/27 03:46:41;;;;;;;1.42;0.73;;;24.10;48.00;;;;;;5067185;28;20131;-75
2021/08/27 03:49:08;;;;;;;1.40;0.80;;;24.10;48.00;;;;;;5058825;28;20059;-75
2021/08/27 03:51:36;;;;;;;0.75;0.60;;;24.10;48.00;;;;;;5065321;28;20124;-74
2021/08/27 03:54:17;;;;;;;0.98;0.73;;;24.10;48.00;;;;;;5056483;28;20106;-75
2021/08/27 03:56:46;;;;;;;0.88;0.75;;;24.10;48.00;;;;;;5066834;28;20416;-75
2021/08/27 03:59:17;;;;;;;0.50;0.50;;;24.10;48.00;;;;;;5053664;28;20490;-74
2021/08/27 04:01:45;;;;;;;0.80;0.77;;;24.10;48.00;;;;;;5066869;28;20136;-75
2021/08/27 04:04:20;;;;;;;1.08;0.93;;;24.10;48.00;;;;;;5067012;28;20090;-75
2021/08/27 04:06:59;;;;;;;0.95;0.77;;;24.10;48.00;;;;;;5066685;28;20127;-75
2021/08/27 04:09:28;;;;;;;0.50;0.50;;;24.10;48.00;;;;;;5057241;28;20084;-75
2021/08/27 04:11:57;;;;;;;1.23;0.50;;;24.10;48.00;;;;;;5051591;28;20125;-75
2021/08/27 04:14:27;;;;;;;0.70;0.70;;;24.10;48.00;;;;;;5056128;28;20076;-75
2021/08/27 04:16:55;;;;;;;0.50;0.50;;;24.10;48.00;;;;;;5056939;28;20494;-75
2021/08/27 04:19:23;;;;;;;1.33;0.90;;;24.10;48.00;;;;;;5045631;28;20043;-75
2021/08/27 04:21:50;;;;;;;0.63;0.63;;;24.10;47.90;;;;;;5056618;28;20407;-75
2021/08/27 04:24:20;;;;;;;0.65;0.50;;;24.10;47.90;;;;;;5057996;28;20440;-74
2021/08/27 04:26:47;;;;;;;1.08;0.70;;;24.10;47.90;;;;;;5056009;28;20128;-75
2021/08/27 04:29:14;;;;;;;0.90;0.55;;;24.10;47.90;;;;;;5046894;28;20087;-75
2021/08/27 04:31:41;;;;;;;0.88;0.60;;;24.10;48.00;;;;;;5053150;28;20053;-74
2021/08/27 04:34:08;;;;;;;4.78;1.00;;;24.10;48.00;;;;;;5056356;28;20075;-74
2021/08/27 04:36:36;;;;;;;0.65;0.65;;;24.10;48.00;;;;;;5057509;28;20049;-74
2021/08/27 04:39:03;;;;;;;0.98;0.70;;;24.10;48.00;;;;;;5046254;28;20081;-74
2021/08/27 04:41:30;;;;;;;0.70;0.70;;;24.10;48.00;;;;;;5055936;28;20045;-74
2021/08/27 04:43:57;;;;;;;0.57;0.55;;;24.10;48.00;;;;;;5057892;28;20148;-75
2021/08/27 04:46:24;;;;;;;0.98;0.80;;;24.10;48.00;;;;;;5055698;28;20044;-74
2021/08/27 04:48:52;;;;;;;0.85;0.65;;;24.10;48.00;;;;;;5045294;28;20484;-74
2021/08/27 04:51:19;;;;;;;0.75;0.70;;;24.10;48.00;;;;;;5056563;28;20554;-74
2021/08/27 04:53:46;;;;;;;1.15;0.60;;;24.10;48.00;;;;;;5050494;28;20045;-74
2021/08/27 04:56:13;;;;;;;2.80;0.73;;;24.10;48.00;;;;;;5056609;28;20393;-74
2021/08/27 04:58:41;;;;;;;0.52;0.52;;;24.10;48.00;;;;;;5048271;28;20045;-72
2021/08/27 05:01:08;;;;;;;0.57;0.57;;;24.10;48.00;;;;;;5054633;28;20877;-75
2021/08/27 05:03:35;;;;;;;0.63;0.50;;;24.10;48.00;;;;;;5058927;28;20045;-74
2021/08/27 05:06:03;;;;;;;0.85;0.55;;;24.10;48.00;;;;;;5058316;28;20128;-74
2021/08/27 05:08:30;;;;;;;1.77;0.63;;;24.10;48.00;;;;;;5053727;28;20497;-76
2021/08/27 05:10:58;;;;;;;0.77;0.60;;;24.00;48.00;;;;;;5066709;28;20080;-75
2021/08/27 05:13:25;;;;;;;0.80;0.50;;;24.00;48.10;;;;;;5069034;28;20059;-74
2021/08/27 05:15:52;;;;;;;0.75;0.70;;;23.90;48.20;;;;;;5051758;28;20049;-74
2021/08/27 05:18:20;;;;;;;1.02;0.68;;;23.90;48.30;;;;;;5059555;28;20091;-74
2021/08/27 05:20:47;;;;;;;0.68;0.68;;;23.80;48.40;;;;;;5060560;28;20091;-71
2021/08/27 05:23:14;;;;;;;4.13;1.05;;;23.80;48.60;;;;;;5062043;28;20393;-71
2021/08/27 05:25:42;;;;;;;0.60;0.60;;;23.60;48.90;;;;;;5064406;28;20047;-72
2021/08/27 05:28:09;;;;;;;0.60;0.45;;;23.50;49.40;;;;;;5054798;28;20135;-70
2021/08/27 05:30:36;;;;;;;2.28;0.77;;;23.30;49.90;;;;;;5051338;28;20487;-71
2021/08/27 05:33:04;;;;;;;0.50;0.50;;;23.20;50.50;;;;;;5053803;28;20045;-71
2021/08/27 05:35:31;;;;;;;2.15;0.52;;;23.10;51.00;;;;;;5057953;28;20139;-73
2021/08/27 05:37:58;;;;;;;1.48;0.50;;;22.90;51.30;;;;;;5056808;28;20155;-74
2021/08/27 05:40:25;;;;;;;1.35;0.68;;;22.70;51.70;;;;;;5053590;28;20144;-72
2021/08/27 05:42:53;;;;;;;0.50;0.50;;;22.60;52.20;;;;;;5059704;28;20076;-67
2021/08/27 05:45:21;;;;;;;0.70;0.60;;;22.50;52.30;;;;;;5053545;28;20052;-71
2021/08/27 05:47:48;;;;;;;1.65;0.95;;;22.40;52.60;;;;;;5047805;28;20463;-73
2021/08/27 05:50:17;;;;;;;2.63;0.90;;;22.30;52.80;;;;;;5051347;28;20087;-71
2021/08/27 05:52:45;;;;;;;0.77;0.57;;;22.20;53.00;;;;;;5055774;28;20136;-72
2021/08/27 05:55:12;;;;;;;4.00;1.00;;;22.20;53.20;;;;;;5052557;28;20037;-71
2021/08/27 05:57:40;;;;;;;1.70;0.90;;;22.10;53.40;;;;;;5052323;28;20105;-69
2021/08/27 06:00:09;;;;;;;2.55;0.98;;;22.00;53.90;;;;;;5056931;28;20131;-72
2021/08/27 06:02:36;;;;;;;1.05;0.90;;;21.90;54.00;;;;;;5056903;28;20051;-73
2021/08/27 06:05:03;;;;;;;1.02;0.85;;;21.90;54.10;;;;;;5062876;28;20045;-72
2021/08/27 06:07:30;;;;;;;1.33;1.10;;;21.80;54.50;;;;;;5059069;28;20054;-74
2021/08/27 06:09:58;;;;;;;2.90;1.20;;;21.80;54.60;;;;;;5046785;28;20128;-72
2021/08/27 06:12:25;;;;;;;1.38;0.95;;;21.70;54.50;;;;;;5045106;28;20084;-75
2021/08/27 06:14:52;;;;;;;3.72;0.90;;;21.70;54.80;;;;;;5047784;28;20080;-73
2021/08/27 06:17:19;;;;;;;3.35;0.95;;;21.60;55.00;;;;;;5057622;28;20552;-72
2021/08/27 06:19:46;;;;;;;2.00;1.27;;;21.60;54.90;;;;;;5050372;28;20490;-76
2021/08/27 06:22:13;;;;;;;1.98;0.82;;;21.60;54.80;;;;;;5053081;28;20135;-75
2021/08/27 06:24:40;;;;;;;1.92;0.93;;;21.50;55.10;;;;;;5053736;28;20139;-73
2021/08/27 06:27:07;;;;;;;2.58;0.88;;;21.50;55.00;;;;;;5049133;28;20054;-74
2021/08/27 06:29:34;;;;;;;1.95;0.70;;;21.50;54.80;;;;;;5046054;28;20102;-74
2021/08/27 06:32:02;;;;;;;1.65;1.23;;;21.40;54.90;;;;;;5052026;28;20036;-71
2021/08/27 06:34:29;;;;;;;2.38;1.08;;;21.40;55.20;;;;;;5049572;28;20135;-72
2021/08/27 06:36:56;;;;;;;3.15;1.08;;;21.40;55.00;;;;;;5054826;28;20049;-71
2021/08/27 06:39:24;;;;;;;1.20;0.73;;;21.40;55.30;;;;;;5043536;28;20045;-72
2021/08/27 06:41:51;;;;;;;1.33;0.98;;;21.30;55.60;;;;;;5048530;28;20055;-71
2021/08/27 06:44:18;;;;;;;2.03;1.30;;;21.30;55.60;;;;;;5046610;28;20090;-72
2021/08/27 06:46:45;;;;;;;1.33;1.10;;;21.30;55.40;;;;;;5056224;28;20142;-71
2021/08/27 06:49:13;;;;;;;0.85;0.82;;;21.30;55.70;;;;;;5045966;28;20428;-70
2021/08/27 06:51:42;;;;;;;1.50;0.98;;;21.30;56.00;;;;;;5048466;28;20045;-69
2021/08/27 06:54:10;;;;;;;1.85;1.13;;;21.30;55.80;;;;;;5054541;28;20069;-74
2021/08/27 06:56:37;;;;;;;0.93;0.73;;;21.20;55.90;;;;;;5050054;28;20048;-71
2021/08/27 06:59:04;;;;;;;1.60;0.93;;;21.20;56.20;;;;;;5040389;28;20684;-72
2021/08/27 07:01:32;;;;;;;1.58;1.17;;;21.20;56.00;;;;;;5057250;28;20146;-72
2021/08/27 07:04:00;;;;;;;1.88;1.13;;;21.20;56.00;;;;;;5054452;28;20051;-68
2021/08/27 07:06:27;;;;;;;2.65;1.00;;;21.20;56.20;;;;;;5050651;28;20569;-68
2021/08/27 07:08:54;;;;;;;1.70;0.85;;;21.20;56.20;;;;;;5045030;28;20071;-69
2021/08/27 07:11:21;;;;;;;1.60;1.00;;;21.20;56.00;;;;;;5052882;28;20112;-73
2021/08/27 07:13:48;;;;;;;1.20;1.08;;;21.20;56.40;;;;;;5049316;28;20072;-73
2021/08/27 07:16:16;;;;;;;0.98;0.80;;;21.20;56.40;;;;;;5053498;28;20144;-74
2021/08/27 07:18:43;;;;;;;1.42;1.05;;;21.20;56.10;;;;;;5044810;28;20049;-74
2021/08/27 07:21:11;;;;;;;2.10;0.90;;;21.20;56.10;;;;;;5054381;28;20045;-76
2021/08/27 07:23:38;;;;;;;1.27;1.17;;;21.20;56.20;;;;;;5056559;28;20047;-74
2021/08/27 07:26:05;;;;;;;1.17;0.85;;;21.20;56.00;;;;;;5052201;28;20519;-73
2021/08/27 07:28:33;;;;;;;1.90;1.10;;;21.20;55.80;;;;;;5047141;28;20045;-72
2021/08/27 07:31:00;;;;;;;1.48;0.88;;;21.30;55.90;;;;;;5052555;28;20132;-73
2021/08/27 07:33:28;;;;;;;2.25;1.00;;;21.20;55.90;;;;;;5053088;28;20056;-75
2021/08/27 07:35:55;;;;;;;3.22;1.08;;;21.20;55.60;;;;;;5054346;28;20481;-73
2021/08/27 07:38:22;;;;;;;2.00;0.98;;;21.20;55.70;;;;;;5045912;28;20479;-72
2021/08/27 07:40:49;;;;;;;1.58;1.15;;;21.30;55.90;;;;;;5047764;28;20052;-74
2021/08/27 07:43:17;;;;;;;2.53;1.10;;;21.30;55.70;;;;;;5052816;28;20053;-75
2021/08/27 07:45:45;;;;;;;2.08;1.17;;;21.30;55.60;;;;;;5050091;28;20511;-70
2021/08/27 07:48:13;;;;;;;2.28;1.00;;;21.30;55.90;;;;;;5046901;28;20059;-71
2021/08/27 07:50:40;;;;;;;1.52;1.13;;;21.30;56.00;;;;;;5045607;28;20040;-70
2021/08/27 07:53:09;;;;;;;4.88;1.05;;;21.30;55.80;;;;;;5051699;28;20066;-74
2021/08/27 07:55:37;;;;;;;1.83;1.20;;;21.30;56.10;;;;;;5050464;28;20045;-74
2021/08/27 07:58:04;;;;;;;2.25;1.10;;;21.40;56.30;;;;;;5045945;28;20123;-73
2021/08/27 08:00:32;;;;;;;2.25;1.33;;;21.40;56.00;;;;;;5040022;28;21851;-70
2021/08/27 08:02:59;;;;;;;4.45;1.02;;;21.40;56.00;;;;;;5054557;28;20099;-72
2021/08/27 08:05:27;;;;;;;2.17;1.25;;;21.40;56.30;;;;;;5050165;28;20539;-72
2021/08/27 08:07:54;;;;;;;5.07;1.40;;;21.40;56.20;;;;;;5048376;28;20055;-72
2021/08/27 08:10:21;;;;;;;4.85;1.33;;;21.40;56.10;;;;;;5046241;28;20560;-68
2021/08/27 08:12:48;;;;;;;1.90;1.10;;;21.30;56.40;;;;;;5053466;28;20509;-68
2021/08/27 08:15:22;;;;;;;2.35;1.30;;;21.40;56.70;;;;;;5050717;28;20045;-67
2021/08/27 08:17:49;;;;;;;3.72;1.23;;;21.30;56.40;;;;;;5045633;28;20080;-67
2021/08/27 08:20:16;;;;;;;2.03;1.13;;;21.30;56.50;;;;;;5055272;28;20141;-69
2021/08/27 08:22:57;;;;;;;3.30;1.23;;;21.30;56.80;;;;;;5048905;28;20107;-69
2021/08/27 08:25:25;;;;;;;1.80;1.15;;;21.30;56.50;;;;;;5053406;28;20745;-71
2021/08/27 08:27:52;;;;;;;1.95;1.17;;;21.30;56.50;;;;;;5048758;28;20074;-68
2021/08/27 08:30:19;;;;;;;2.47;1.23;;;21.40;56.80;;;;;;5053545;28;20080;-71
2021/08/27 08:32:47;;;;;;;2.70;1.15;;;21.40;56.70;;;;;;5061123;28;20059;-70
2021/08/27 08:35:14;;;;;;;2.35;1.02;;;21.40;56.30;;;;;;5054654;28;20045;-69
2021/08/27 08:37:41;;;;;;;7.43;1.58;;;21.50;56.40;;;;;;5054654;28;20139;-69
2021/08/27 08:40:10;;;;;;;2.08;1.08;;;21.50;57.10;;;;;;5052631;28;20420;-72
2021/08/27 08:42:37;;;;;;;8.10;1.45;;;21.60;56.30;;;;;;5057891;28;20055;-68
2021/08/27 08:45:05;;;;;;;2.90;1.23;;;21.60;56.20;;;;;;5052365;28;20079;-69
2021/08/27 08:47:35;;;;;;;2.58;1.55;;;21.70;56.30;;;;;;5057888;28;20052;-70
2021/08/27 08:50:03;;;;;;;;;;;21.70;56.10;;;;;;5056068;28;20098;-69
2021/08/27 08:52:32;;;;;;;2.47;1.30;;;21.70;55.80;;;;;;5053315;28;19958;-73
2021/08/27 08:54:59;;;;;;;2.55;1.25;;;21.80;55.80;;;;;;5050632;28;20036;-70
2021/08/27 08:57:27;;;;;;;1.85;1.35;;;21.80;55.70;;;;;;5057110;28;20045;-73
2021/08/27 08:59:54;;;;;;;3.45;1.30;;;21.90;55.40;;;;;;5049179;28;20203;-70
2021/08/27 09:02:26;;;;;;;1.38;1.10;;;21.90;55.50;;;;;;5062584;28;20080;-75
2021/08/27 09:04:54;;;;;;;3.70;1.67;;;22.00;55.60;;;;;;5053674;28;20505;-72
2021/08/27 09:07:21;;;;;;;4.93;1.38;;;22.00;55.40;;;;;;5052722;28;20507;-71
2021/08/27 09:09:49;;;;;;;2.15;1.30;;;22.00;55.20;;;;;;5043946;28;20064;-72
2021/08/27 09:12:25;;;;;;;2.00;1.23;;;22.00;55.40;;;;;;5058334;28;20049;-70
2021/08/27 09:15:03;;;;;;;1.90;1.00;;;22.00;55.30;;;;;;5056375;28;20075;-72
2021/08/27 09:17:42;;;;;;;2.20;1.30;;;22.10;55.00;;;;;;5047449;28;20094;-73
2021/08/27 09:20:15;;;;;;;0.98;0.90;;;22.10;55.10;;;;;;5051448;28;20041;-76
2021/08/27 09:22:52;;;;;;;5.85;1.55;;;22.10;55.10;;;;;;5052603;28;20108;-69
2021/08/27 09:25:21;;;;;;;4.75;1.13;;;22.20;55.00;;;;;;5054024;28;20059;-69
2021/08/27 09:28:08;;;;;;;1.33;1.23;;;22.20;55.20;;;;;;5051527;28;20044;-71
2021/08/27 09:30:39;;;;;;;4.80;1.45;;;22.20;55.30;;;;;;5053285;28;20154;-72
2021/08/27 09:33:13;;;;;;;3.53;1.40;;;22.20;54.90;;;;;;5053908;28;20099;-73
2021/08/27 09:36:04;;;;;;;5.30;1.55;;;22.20;55.00;;;;;;5055127;28;20046;-71
2021/08/27 09:38:35;;;;;;;2.70;1.38;;;22.20;55.20;;;;;;5047636;28;20545;-71
2021/08/27 09:41:05;;;;;;;3.50;1.67;;;22.20;55.10;;;;;;5050257;28;20040;-71
2021/08/27 09:43:52;;;;;;;;;;;22.20;55.50;;;;;;5058723;28;20511;-74
2021/08/27 09:46:35;;;;;;;2.33;1.55;;;22.20;55.10;;;;;;5050724;28;20272;-72
2021/08/27 09:49:34;;;;;;;5.75;1.23;;;22.20;55.00;;;;;;5049369;28;20179;-73
2021/08/27 09:52:05;;;;;;;3.17;1.35;;;22.20;55.00;;;;;;5050590;28;20128;-72
2021/08/27 09:54:35;;;;;;;2.78;1.45;;;22.20;55.30;;;;;;5055759;28;20052;-73
2021/08/27 09:57:04;;;;;;;5.20;1.83;;;22.20;55.20;;;;;;5055426;28;20048;-71
2021/08/27 09:59:46;;;;;;;1.75;1.40;;;22.20;55.00;;;;;;5040156;28;20053;-72
2021/08/27 10:02:16;;;;;;;1.65;1.23;;;22.20;55.00;;;;;;5053009;28;20053;-70
2021/08/27 10:04:54;;;;;;;2.35;1.48;;;22.30;55.00;;;;;;5053562;28;20051;-71
2021/08/27 10:07:33;;;;;;;3.47;1.77;;;22.30;54.70;;;;;;5056152;28;20041;-74
2021/08/27 10:10:03;;;;;;;4.53;1.75;;;22.30;54.80;;;;;;5047885;28;20055;-73
2021/08/27 10:12:32;;;;;;;4.95;1.60;;;22.30;54.70;;;;;;5053741;28;20866;-73
2021/08/27 10:15:01;;;;;;;2.10;1.35;;;22.30;54.40;;;;;;5056562;28;20123;-73
2021/08/27 10:17:28;;;;;;;4.93;1.80;;;22.30;54.30;;;;;;5050645;28;20055;-74
2021/08/27 10:19:55;;;;;;;3.38;1.70;;;22.40;54.30;;;;;;5049619;28;20067;-74
2021/08/27 10:22:23;;;;;;;2.45;1.42;;;22.40;54.30;;;;;;5057318;28;20382;-73
2021/08/27 10:24:51;;;;;;;1.90;1.38;;;22.30;54.30;;;;;;5054398;28;20139;-73
2021/08/27 10:27:19;;;;;;;4.10;1.23;;;22.30;54.30;;;;;;5058087;28;20127;-72
2021/08/27 10:29:57;;;;;;;1.85;1.23;;;22.30;54.30;;;;;;5047408;28;20144;-74
2021/08/27 10:32:46;;;;;;;1.77;1.23;;;22.30;54.10;;;;;;5052142;28;20068;-68
2021/08/27 10:35:52;;;;;;;3.80;1.58;;;22.30;54.20;;;;;;5054301;28;20481;-70
2021/08/27 10:38:43;;;;;;;3.20;1.17;;;22.30;54.40;;;;;;5052079;28;20071;-68
2021/08/27 10:41:19;;;;;;;1.73;1.20;;;22.30;54.40;;;;;;5056962;28;20068;-69
2021/08/27 10:43:57;;;;;;;3.13;1.10;;;22.30;54.50;;;;;;5054106;28;20118;-70
2021/08/27 10:46:52;;;;;;;2.53;1.30;;;22.30;54.40;;;;;;5052950;28;20132;-70
2021/08/27 10:49:52;;;;;;;1.77;1.17;;;22.30;54.30;;;;;;5044928;28;20059;-68
2021/08/27 10:52:28;;;;;;;1.42;0.90;;;22.30;54.50;;;;;;5051626;28;20460;-70
2021/08/27 10:55:07;;;;;;;1.67;1.08;;;22.30;54.70;;;;;;5048519;28;20045;-70
2021/08/27 10:57:59;;;;;;;2.28;1.10;;;22.30;54.50;;;;;;5053277;28;20053;-69
2021/08/27 11:00:39;;;;;;;1.17;0.95;;;22.40;54.20;;;;;;5057009;28;20055;-70
2021/08/27 11:03:08;;;;;;;1.35;0.93;;;22.40;54.00;;;;;;5050700;28;20048;-69
2021/08/27 11:05:44;;;;;;;1.83;1.35;;;22.40;54.00;;;;;;5055714;28;20453;-69
2021/08/27 11:08:14;;;;;;;1.48;1.10;;;22.50;54.00;;;;;;5046789;28;20492;-72
2021/08/27 11:11:19;;;;;;;1.40;1.17;;;22.50;53.70;;;;;;5048468;28;20052;-66
2021/08/27 11:13:46;;;;;;;1.85;0.77;;;22.40;53.70;;;;;;5053422;28;20161;-70
2021/08/27 11:16:24;;;;;;;4.63;1.50;;;22.50;53.80;;;;;;5050752;28;20131;-71
2021/08/27 11:18:52;;;;;;;1.08;0.95;;;22.40;53.60;;;;;;5040073;28;20045;-69
2021/08/27 11:21:35;;;;;;;4.05;0.85;;;22.50;53.50;;;;;;5058741;28;20139;-71
2021/08/27 11:24:22;;;;;;;2.15;1.33;;;22.50;53.40;;;;;;5058577;28;20155;-72
2021/08/27 11:27:04;;;;;;;1.58;0.90;;;22.50;53.40;;;;;;5058226;28;20068;-69
2021/08/27 11:29:39;;;;;;;1.77;1.02;;;22.50;53.50;;;;;;5043299;28;20049;-69
2021/08/27 11:32:34;;;;;;;1.48;1.15;;;22.50;53.40;;;;;;5049674;28;20071;-69
2021/08/27 11:35:05;;;;;;;3.33;0.90;;;22.50;53.30;;;;;;5055705;28;20136;-69
2021/08/27 11:37:41;;;;;;;1.45;1.00;;;22.50;53.40;;;;;;5049194;28;20139;-68
2021/08/27 11:40:10;;;;;;;0.98;0.90;;;22.40;53.30;;;;;;5050546;28;20049;-69
2021/08/27 11:42:43;;;;;;;1.98;1.10;;;22.50;53.40;;;;;;5056108;28;20033;-71
2021/08/27 11:45:14;;;;;;;2.92;1.15;;;22.50;53.50;;;;;;5051701;28;20131;-69
2021/08/27 11:47:44;;;;;;;1.38;1.10;;;22.50;53.50;;;;;;5053800;28;20067;-70
2021/08/27 11:50:37;;;;;;;1.88;1.13;;;22.40;53.60;;;;;;5047728;28;20041;-70
2021/08/27 11:53:07;;;;;;;1.10;1.00;;;22.40;53.80;;;;;;5048317;28;20149;-69
2021/08/27 11:55:42;;;;;;;1.05;0.95;;;22.50;53.70;;;;;;5051536;28;20053;-69
2021/08/27 11:58:10;;;;;;;2.00;0.80;;;22.40;53.50;;;;;;5051093;28;20059;-72
2021/08/27 12:00:46;;;;;;;1.65;1.13;;;22.50;53.40;;;;;;5050198;28;20072;-76
2021/08/27 12:03:15;;;;;;;1.10;1.00;;;22.50;53.40;;;;;;5050307;28;20121;-75
2021/08/27 12:05:43;;;;;;;1.15;0.90;;;22.50;53.40;;;;;;5063342;28;20049;-74
2021/08/27 12:08:15;;;;;;;1.35;0.90;;;22.40;53.40;;;;;;5057572;28;20409;-74
2021/08/27 12:10:46;;;;;;;0.70;0.70;;;22.50;53.50;;;;;;5054964;28;20056;-74
2021/08/27 12:13:14;;;;;;;1.60;0.90;;;22.40;53.40;;;;;;5064320;28;20037;-74
2021/08/27 12:15:44;;;;;;;1.27;0.95;;;22.50;53.30;;;;;;5058561;28;20465;-74
2021/08/27 12:18:16;;;;;;;0.95;0.70;;;22.40;53.10;;;;;;5076746;28;20081;-74
2021/08/27 12:20:49;;;;;;;0.82;0.82;;;22.40;53.00;;;;;;5070826;28;20457;-75
2021/08/27 12:23:21;;;;;;;0.70;0.70;;;22.40;53.30;;;;;;5077699;28;20052;-74
2021/08/27 12:26:02;;;;;;;0.75;0.73;;;22.40;53.40;;;;;;5054635;28;20048;-74
2021/08/27 12:28:34;;;;;;;1.00;0.90;;;22.40;53.20;;;;;;5055061;28;20072;-74
2021/08/27 12:31:02;;;;;;;2.88;0.90;;;22.40;53.00;;;;;;5061717;28;20044;-74
2021/08/27 12:33:35;;;;;;;0.90;0.80;;;22.30;53.00;;;;;;5062233;28;20102;-74
2021/08/27 12:36:04;;;;;;;0.98;0.90;;;22.30;53.20;;;;;;5075283;28;20041;-76
2021/08/27 12:38:31;;;;;;;0.98;0.90;;;22.30;53.30;;;;;;5060263;28;20048;-74
2021/08/27 12:41:13;;;;;;;0.80;0.80;;;22.30;53.20;;;;;;5062888;28;20180;-73
2021/08/27 12:43:41;;;;;;;1.58;1.13;;;22.30;53.20;;;;;;5066467;28;20056;-74
2021/08/27 12:46:23;;;;;;;0.95;0.80;;;22.20;53.20;;;;;;5070596;28;20056;-74
2021/08/27 12:49:10;;;;;;;1.02;0.75;;;22.30;53.90;;;;;;5055363;28;20121;-73
2021/08/27 12:51:40;;;;;;;2.75;1.05;;;22.30;53.40;;;;;;5061320;28;20147;-74
2021/08/27 12:54:08;;;;;;;1.35;0.63;;;22.20;53.50;;;;;;5063216;28;20049;-74
2021/08/27 12:56:35;;;;;;;1.70;0.82;;;22.20;53.50;;;;;;5064077;28;20079;-75
2021/08/27 12:59:19;;;;;;;1.25;0.60;;;22.20;53.60;;;;;;5054176;28;20052;-70
2021/08/27 13:01:46;;;;;;;1.35;0.68;;;22.20;53.80;;;;;;5073504;28;20053;-71
2021/08/27 13:04:17;;;;;;;2.67;0.82;;;22.20;54.20;;;;;;5058738;28;20489;-72
2021/08/27 13:06:49;;;;;;;1.00;0.70;;;22.20;54.20;;;;;;5058772;28;20473;-70
2021/08/27 13:09:27;;;;;;;0.95;0.95;;;22.30;54.00;;;;;;5051593;28;20048;-71